Time;durP1;ratioP1;P1;durP2;ratioP2;P2;SDS_P1;SDS_P2;PMS_P1;PMS_P2;Temp;Humidity;BMP_temperature;BMP_pressure;BME280_temperature;BME280_humidity;BME280_pressure;Samples;Min_cycle;Max_cycle;Signal;HPM_P1;HPM_P2
2022/10/18 00:01:31;;;;;;;1.92;1.83;;;;;;;;;;5105998;28;20030;-70
2022/10/18 00:03:58;;;;;;;0.90;0.90;;;;;;;;;;5077266;28;20382;-70
2022/10/18 00:06:24;;;;;;;0.75;0.75;;;;;;;;;;5079940;28;20024;-70
2022/10/18 00:08:50;;;;;;;0.63;0.63;;;;;;;;;;5105743;28;20028;-70
2022/10/18 00:11:17;;;;;;;0.10;0.10;;;;;;;;;;5082927;28;20497;-69
2022/10/18 00:13:43;;;;;;;0.00;0.00;;;;;;;;;;5076753;28;20028;-70
2022/10/18 00:16:11;;;;;;;0.60;0.57;;;;;;;;;;5094996;28;20054;-70
2022/10/18 00:18:38;;;;;;;0.00;0.00;;;;;;;;;;5076774;28;20035;-70
2022/10/18 00:21:06;;;;;;;2.15;1.70;;;;;;;;;;5094989;28;20028;-71
2022/10/18 00:23:33;;;;;;;0.00;0.00;;;;;;;;;;5076474;28;20034;-71
2022/10/18 00:26:04;;;;;;;0.30;0.30;;;;;;;;;;5100755;28;20027;-72
2022/10/18 00:28:30;;;;;;;0.38;0.17;;;;;;;;;;5109005;28;20020;-72
2022/10/18 00:30:57;;;;;;;2.20;1.70;;;;;;;;;;5081411;28;20444;-72
2022/10/18 00:33:23;;;;;;;0.57;0.57;;;;;;;;;;5094780;28;20086;-72
2022/10/18 00:35:49;;;;;;;0.00;0.00;;;;;;;;;;5094502;28;20047;-72
2022/10/18 00:38:16;;;;;;;0.00;0.00;;;;;;;;;;5076365;28;20024;-73
2022/10/18 00:40:42;;;;;;;0.20;0.20;;;;;;;;;;5076040;28;20026;-73
2022/10/18 00:43:11;;;;;;;0.00;0.00;;;;;;;;;;5101808;28;20524;-73
2022/10/18 00:45:38;;;;;;;0.00;0.00;;;;;;;;;;5085963;28;20036;-72
2022/10/18 00:48:04;;;;;;;1.45;1.35;;;;;;;;;;5083167;28;20382;-74
2022/10/18 00:50:32;;;;;;;0.00;0.00;;;;;;;;;;5088548;28;20387;-72
2022/10/18 00:53:01;;;;;;;0.00;0.00;;;;;;;;;;5103161;28;20031;-72
2022/10/18 00:55:28;;;;;;;0.00;0.00;;;;;;;;;;5094158;28;20048;-73
2022/10/18 00:57:55;;;;;;;0.00;0.00;;;;;;;;;;5075826;28;20028;-75
2022/10/18 01:00:21;;;;;;;0.00;0.00;;;;;;;;;;5082108;28;20039;-73
2022/10/18 01:02:48;;;;;;;0.00;0.00;;;;;;;;;;5101430;28;20099;-72
2022/10/18 01:05:16;;;;;;;0.00;0.00;;;;;;;;;;5075794;28;20028;-71
2022/10/18 01:07:48;;;;;;;0.25;0.13;;;;;;;;;;5093828;28;20020;-71
2022/10/18 01:10:15;;;;;;;0.00;0.00;;;;;;;;;;5094178;28;20028;-73
2022/10/18 01:13:04;;;;;;;2.38;2.28;;;;;;;;;;5094327;28;20028;-73
2022/10/18 01:15:31;;;;;;;0.00;0.00;;;;;;;;;;5098388;28;20028;-74
2022/10/18 01:18:07;;;;;;;0.30;0.30;;;;;;;;;;5101219;28;20379;-72
2022/10/18 01:20:52;;;;;;;0.20;0.20;;;;;;;;;;5093568;28;20416;-72
2022/10/18 01:23:35;;;;;;;0.00;0.00;;;;;;;;;;5102886;28;20076;-72
2022/10/18 01:26:08;;;;;;;0.50;0.50;;;;;;;;;;5075352;28;20028;-72
2022/10/18 01:29:09;;;;;;;0.38;0.38;;;;;;;;;;5104791;27;20020;-72
2022/10/18 01:31:45;;;;;;;0.40;0.40;;;;;;;;;;4986047;28;20026;-72
2022/10/18 01:34:14;;;;;;;0.00;0.00;;;;;;;;;;5070208;28;20031;-72
2022/10/18 01:36:41;;;;;;;0.00;0.00;;;;;;;;;;5083074;28;20078;-73
2022/10/18 01:39:13;;;;;;;0.70;0.70;;;;;;;;;;5088424;28;20402;-72
2022/10/18 01:41:41;;;;;;;0.95;0.73;;;;;;;;;;5093123;28;20040;-72
2022/10/18 01:44:09;;;;;;;0.75;0.75;;;;;;;;;;5092429;28;20021;-72
2022/10/18 01:46:36;;;;;;;0.00;0.00;;;;;;;;;;5074225;28;20028;-73
2022/10/18 01:49:02;;;;;;;0.20;0.20;;;;;;;;;;5095515;28;20074;-73
2022/10/18 01:51:29;;;;;;;0.32;0.32;;;;;;;;;;5073940;28;20028;-73
2022/10/18 01:53:56;;;;;;;0.13;0.13;;;;;;;;;;5092424;28;20024;-73
2022/10/18 01:56:35;;;;;;;0.38;0.38;;;;;;;;;;5092066;28;20099;-73
2022/10/18 01:59:14;;;;;;;0.30;0.30;;;;;;;;;;5074039;28;20066;-73
2022/10/18 02:01:41;;;;;;;0.00;0.00;;;;;;;;;;5092128;28;20039;-73
2022/10/18 02:04:14;;;;;;;0.45;0.45;;;;;;;;;;5092207;28;20024;-73
2022/10/18 02:06:43;;;;;;;0.65;0.65;;;;;;;;;;5092288;28;20028;-74
2022/10/18 02:09:12;;;;;;;5.18;0.47;;;;;;;;;;5108088;28;20488;-74
2022/10/18 02:11:39;;;;;;;0.00;0.00;;;;;;;;;;5079644;28;20031;-73
2022/10/18 02:14:07;;;;;;;0.10;0.10;;;;;;;;;;5079617;28;20024;-71
2022/10/18 02:16:44;;;;;;;0.10;0.10;;;;;;;;;;5098135;28;20407;-72
2022/10/18 02:19:14;;;;;;;0.00;0.00;;;;;;;;;;5100332;28;20035;-74
2022/10/18 02:21:41;;;;;;;0.00;0.00;;;;;;;;;;5095982;28;20034;-71
2022/10/18 02:24:08;;;;;;;0.00;0.00;;;;;;;;;;5109246;28;20024;-71
2022/10/18 02:26:35;;;;;;;0.00;0.00;;;;;;;;;;5107626;28;20045;-72
2022/10/18 02:29:01;;;;;;;0.00;0.00;;;;;;;;;;5089720;28;20118;-73
2022/10/18 02:31:32;;;;;;;0.00;0.00;;;;;;;;;;5098621;28;20110;-73
2022/10/18 02:34:08;;;;;;;16.45;13.13;;;;;;;;;;5103895;28;20023;-72
2022/10/18 02:36:37;;;;;;;0.00;0.00;;;;;;;;;;5103406;28;20083;-74
2022/10/18 02:39:07;;;;;;;0.00;0.00;;;;;;;;;;5101159;28;20050;-74
2022/10/18 02:41:34;;;;;;;0.10;0.08;;;;;;;;;;5086692;28;346961;-73
2022/10/18 02:44:00;;;;;;;0.38;0.38;;;;;;;;;;5086310;28;20096;-73
2022/10/18 02:46:26;;;;;;;0.10;0.10;;;;;;;;;;5106839;28;20094;-73
2022/10/18 02:48:53;;;;;;;0.00;0.00;;;;;;;;;;5090904;28;20115;-74
2022/10/18 02:51:19;;;;;;;0.00;0.00;;;;;;;;;;5097054;28;20016;-74
2022/10/18 02:53:45;;;;;;;0.00;0.00;;;;;;;;;;5101060;28;20027;-73
2022/10/18 02:56:12;;;;;;;0.00;0.00;;;;;;;;;;5097375;28;20031;-73
2022/10/18 02:58:38;;;;;;;0.00;0.00;;;;;;;;;;5095633;28;20076;-72
2022/10/18 03:01:04;;;;;;;0.00;0.00;;;;;;;;;;5079241;28;20428;-69
2022/10/18 03:03:31;;;;;;;0.00;0.00;;;;;;;;;;5100969;28;20215;-69
2022/10/18 03:05:57;;;;;;;0.10;0.10;;;;;;;;;;5082281;28;20073;-69
2022/10/18 03:08:23;;;;;;;0.00;0.00;;;;;;;;;;5093863;28;20031;-69
2022/10/18 03:10:50;;;;;;;0.20;0.20;;;;;;;;;;5098308;28;20525;-69
2022/10/18 03:13:16;;;;;;;0.00;0.00;;;;;;;;;;5101578;28;20052;-70
2022/10/18 03:15:42;;;;;;;0.20;0.20;;;;;;;;;;5092401;28;20031;-71
2022/10/18 03:18:09;;;;;;;0.08;0.08;;;;;;;;;;5082240;28;20097;-71
2022/10/18 03:20:35;;;;;;;0.00;0.00;;;;;;;;;;5104255;28;20081;-71
2022/10/18 03:23:02;;;;;;;14.15;12.80;;;;;;;;;;5099803;28;20077;-70
2022/10/18 03:25:28;;;;;;;0.00;0.00;;;;;;;;;;5080460;28;20022;-71
2022/10/18 03:27:54;;;;;;;0.00;0.00;;;;;;;;;;5102560;28;20078;-72
2022/10/18 03:30:21;;;;;;;0.00;0.00;;;;;;;;;;5105395;28;20101;-70
2022/10/18 03:32:47;;;;;;;0.00;0.00;;;;;;;;;;5085030;28;20027;-72
2022/10/18 03:35:13;;;;;;;1.60;1.00;;;;;;;;;;5104814;28;20027;-72
2022/10/18 03:37:40;;;;;;;1.38;0.80;;;;;;;;;;5089219;28;20042;-73
2022/10/18 03:40:07;;;;;;;0.00;0.00;;;;;;;;;;5088506;28;20121;-73
2022/10/18 03:42:34;;;;;;;0.00;0.00;;;;;;;;;;5111514;27;20064;-72
2022/10/18 03:45:01;;;;;;;0.00;0.00;;;;;;;;;;5107067;28;20023;-71
2022/10/18 03:47:27;;;;;;;0.00;0.00;;;;;;;;;;5106288;28;20016;-71
2022/10/18 03:49:53;;;;;;;2.90;2.30;;;;;;;;;;5104082;28;20028;-71
2022/10/18 03:52:20;;;;;;;0.00;0.00;;;;;;;;;;5091004;28;20077;-72
2022/10/18 03:54:46;;;;;;;0.00;0.00;;;;;;;;;;5104405;27;20077;-71
2022/10/18 03:57:12;;;;;;;0.00;0.00;;;;;;;;;;5094564;28;20383;-71
2022/10/18 03:59:39;;;;;;;0.00;0.00;;;;;;;;;;5118526;27;20019;-71
2022/10/18 04:02:05;;;;;;;0.00;0.00;;;;;;;;;;5096296;28;20466;-74
2022/10/18 04:04:31;;;;;;;0.08;0.08;;;;;;;;;;5087967;28;20028;-73
2022/10/18 04:06:58;;;;;;;1.20;0.57;;;;;;;;;;5094120;28;20457;-72
2022/10/18 04:09:27;;;;;;;0.40;0.40;;;;;;;;;;5105388;28;20049;-72
2022/10/18 04:11:53;;;;;;;0.00;0.00;;;;;;;;;;5107330;28;20035;-73
2022/10/18 04:14:23;;;;;;;0.00;0.00;;;;;;;;;;5110440;28;20042;-74
2022/10/18 04:16:50;;;;;;;0.00;0.00;;;;;;;;;;5095405;28;20065;-74
2022/10/18 04:19:16;;;;;;;0.00;0.00;;;;;;;;;;5082487;28;20539;-75
2022/10/18 04:21:42;;;;;;;0.35;0.22;;;;;;;;;;5086452;28;20074;-77
2022/10/18 04:24:09;;;;;;;0.90;0.90;;;;;;;;;;5110310;27;20080;-75
2022/10/18 04:26:35;;;;;;;0.00;0.00;;;;;;;;;;5107616;27;20039;-73
2022/10/18 04:29:02;;;;;;;0.00;0.00;;;;;;;;;;5106215;28;20028;-73
2022/10/18 04:31:28;;;;;;;0.00;0.00;;;;;;;;;;5106563;27;20032;-73
2022/10/18 04:33:54;;;;;;;0.00;0.00;;;;;;;;;;5116204;27;20089;-75
2022/10/18 04:36:21;;;;;;;1.95;1.35;;;;;;;;;;5085954;28;20478;-73
2022/10/18 04:38:47;;;;;;;0.00;0.00;;;;;;;;;;5111071;27;20031;-74
2022/10/18 04:41:13;;;;;;;0.00;0.00;;;;;;;;;;5101086;28;20028;-75
2022/10/18 04:43:40;;;;;;;0.75;0.17;;;;;;;;;;5101457;28;20059;-76
2022/10/18 04:46:06;;;;;;;0.10;0.10;;;;;;;;;;5099790;27;20027;-76
2022/10/18 04:48:32;;;;;;;0.65;0.40;;;;;;;;;;5082499;28;20119;-74
2022/10/18 04:50:59;;;;;;;0.00;0.00;;;;;;;;;;5077577;27;20020;-76
2022/10/18 04:53:25;;;;;;;0.10;0.08;;;;;;;;;;5078363;28;20100;-74
2022/10/18 04:55:51;;;;;;;0.00;0.00;;;;;;;;;;5097202;28;20032;-73
2022/10/18 04:58:18;;;;;;;0.00;0.00;;;;;;;;;;5076370;28;20035;-73
2022/10/18 05:00:46;;;;;;;0.00;0.00;;;;;;;;;;5092090;28;20300;-73
2022/10/18 05:03:13;;;;;;;0.35;0.35;;;;;;;;;;5089139;27;20496;-72
2022/10/18 05:05:39;;;;;;;0.43;0.30;;;;;;;;;;5105189;27;20392;-73
2022/10/18 05:08:06;;;;;;;0.30;0.30;;;;;;;;;;5082670;28;20047;-71
2022/10/18 05:10:32;;;;;;;1.02;0.40;;;;;;;;;;5099271;28;20059;-73
2022/10/18 05:12:59;;;;;;;0.63;0.32;;;;;;;;;;5080810;28;20044;-72
2022/10/18 05:15:27;;;;;;;0.00;0.00;;;;;;;;;;5106412;28;20102;-71
2022/10/18 05:17:53;;;;;;;0.00;0.00;;;;;;;;;;5104094;27;20020;-71
2022/10/18 05:20:20;;;;;;;0.00;0.00;;;;;;;;;;5098272;28;20032;-71
2022/10/18 05:22:46;;;;;;;0.00;0.00;;;;;;;;;;5097043;28;20043;-70
2022/10/18 05:25:13;;;;;;;0.22;0.03;;;;;;;;;;5096472;27;20047;-72
2022/10/18 05:27:39;;;;;;;0.00;0.00;;;;;;;;;;5097935;27;20024;-72
2022/10/18 05:30:06;;;;;;;0.00;0.00;;;;;;;;;;5102386;28;20034;-72
2022/10/18 05:32:32;;;;;;;0.00;0.00;;;;;;;;;;5102404;28;20023;-71
2022/10/18 05:34:58;;;;;;;0.03;0.00;;;;;;;;;;5105123;28;20028;-71
2022/10/18 05:37:25;;;;;;;0.00;0.00;;;;;;;;;;5101202;28;20061;-72
2022/10/18 05:39:51;;;;;;;0.55;0.55;;;;;;;;;;5102820;27;20098;-72
2022/10/18 05:42:17;;;;;;;6.85;0.50;;;;;;;;;;5099662;28;20032;-72
2022/10/18 05:44:44;;;;;;;0.00;0.00;;;;;;;;;;5103905;27;20023;-73
2022/10/18 05:47:10;;;;;;;0.00;0.00;;;;;;;;;;5104533;27;20099;-72
2022/10/18 05:49:36;;;;;;;0.20;0.15;;;;;;;;;;5085240;28;20393;-72
2022/10/18 05:52:03;;;;;;;0.00;0.00;;;;;;;;;;5102794;27;20477;-72
2022/10/18 05:54:29;;;;;;;0.13;0.13;;;;;;;;;;5101027;28;20115;-72
2022/10/18 05:56:55;;;;;;;1.65;1.55;;;;;;;;;;5105080;27;20055;-71
2022/10/18 05:59:22;;;;;;;0.05;0.05;;;;;;;;;;5097996;28;20043;-73
2022/10/18 06:01:48;;;;;;;0.00;0.00;;;;;;;;;;5073161;27;20467;-71
2022/10/18 06:04:16;;;;;;;0.52;0.52;;;;;;;;;;5092936;27;20410;-72
2022/10/18 06:06:43;;;;;;;0.88;0.88;;;;;;;;;;5099741;28;20107;-71
2022/10/18 06:09:09;;;;;;;0.10;0.00;;;;;;;;;;5081009;28;20035;-71
2022/10/18 06:11:36;;;;;;;0.08;0.08;;;;;;;;;;5100224;28;20043;-72
2022/10/18 06:14:03;;;;;;;0.82;0.30;;;;;;;;;;5097748;28;20051;-72
2022/10/18 06:16:30;;;;;;;0.08;0.08;;;;;;;;;;5082232;28;20109;-73
2022/10/18 06:18:58;;;;;;;0.10;0.10;;;;;;;;;;5097779;28;20424;-73
2022/10/18 06:21:25;;;;;;;0.00;0.00;;;;;;;;;;5095850;28;20024;-72
2022/10/18 06:23:52;;;;;;;0.28;0.28;;;;;;;;;;5097459;28;20023;-72
2022/10/18 06:26:19;;;;;;;0.08;0.08;;;;;;;;;;5091960;28;20104;-72
2022/10/18 06:28:46;;;;;;;0.40;0.40;;;;;;;;;;5099856;28;20488;-72
2022/10/18 06:31:12;;;;;;;0.00;0.00;;;;;;;;;;5081863;28;20085;-73
2022/10/18 06:33:39;;;;;;;0.08;0.08;;;8.60;99.90;;;;;;5077420;28;20088;-73
2022/10/18 06:36:07;;;;;;;0.63;0.32;;;;;;;;;;5092331;28;20035;-73
2022/10/18 06:38:34;;;;;;;1.80;0.75;;;;;;;;;;5081461;28;20023;-73
2022/10/18 06:41:01;;;;;;;5.53;1.30;;;;;;;;;;5095591;28;20160;-72
2022/10/18 06:43:27;;;;;;;1.08;0.93;;;;;;;;;;5101595;28;20416;-72
2022/10/18 06:45:54;;;;;;;3.17;2.05;;;;;;;;;;5100540;28;20495;-73
2022/10/18 06:48:21;;;;;;;18.52;2.28;;;;;;;;;;5100263;28;20506;-73
2022/10/18 06:50:55;;;;;;;5.22;2.88;;;;;;;;;;5096813;28;20096;-74
2022/10/18 06:53:22;;;;;;;6.18;5.55;;;;;;;;;;5085463;28;20043;-73
2022/10/18 06:55:48;;;;;;;1.23;0.55;;;;;;;;;;5097721;28;20095;-72
2022/10/18 06:58:15;;;;;;;1.00;0.70;;;;;;;;;;5099743;28;20035;-73
2022/10/18 07:00:41;;;;;;;1.55;0.57;;;;;;;;;;5099914;28;20036;-73
2022/10/18 07:03:07;;;;;;;1.35;0.75;;;;;;;;;;5082261;28;20035;-76
2022/10/18 07:05:34;;;;;;;1.95;0.73;;;;;;;;;;5083148;28;20020;-74
2022/10/18 07:08:00;;;;;;;0.80;0.45;;;;;;;;;;5082272;28;20359;-73
2022/10/18 07:10:26;;;;;;;1.77;0.47;;;;;;;;;;5099032;28;20031;-73
2022/10/18 07:12:53;;;;;;;0.93;0.63;;;;;;;;;;5076651;28;20062;-72
2022/10/18 07:15:21;;;;;;;0.98;0.90;;;;;;;;;;5097230;28;20038;-74
2022/10/18 07:17:48;;;;;;;2.80;1.10;;;;;;;;;;5084306;28;20323;-73
2022/10/18 07:20:14;;;;;;;3.35;2.92;;;;;;;;;;5100537;27;20023;-74
2022/10/18 07:22:40;;;;;;;4.28;0.93;;;;;;;;;;5081834;28;20027;-73
2022/10/18 07:25:07;;;;;;;1.55;0.60;;;;;;;;;;5099820;27;20478;-75
2022/10/18 07:27:37;;;;;;;1.45;0.98;;;;;;;;;;5098098;28;20112;-73
2022/10/18 07:30:05;;;;;;;4.45;0.85;;;;;;;;;;5098560;27;20019;-73
2022/10/18 07:32:31;;;;;;;2.17;0.73;;;;;;;;;;5101046;27;20102;-74
2022/10/18 07:34:58;;;;;;;0.70;0.40;;;;;;;;;;5087881;28;20032;-73
2022/10/18 07:37:24;;;;;;;1.27;1.02;;;;;;;;;;5098508;27;20031;-74
2022/10/18 07:39:50;;;;;;;1.52;1.13;;;;;;;;;;5101582;28;20024;-74
2022/10/18 07:42:17;;;;;;;1.00;0.55;;;;;;;;;;5101045;28;20036;-75
2022/10/18 07:44:43;;;;;;;2.80;1.45;;;;;;;;;;5083079;28;20030;-73
2022/10/18 07:47:09;;;;;;;2.13;1.08;;;;;;;;;;5104329;28;20020;-75
2022/10/18 07:49:36;;;;;;;4.80;1.75;;;;;;;;;;5108205;27;20480;-73
2022/10/18 07:52:02;;;;;;;2.70;1.52;;;;;;;;;;5095164;28;20044;-74
2022/10/18 07:54:29;;;;;;;2.53;1.70;;;;;;;;;;5100648;28;20028;-74
2022/10/18 07:56:55;;;;;;;4.75;1.75;;;;;;;;;;5100266;27;20024;-70
2022/10/18 07:59:24;;;;;;;1.88;1.00;;;;;;;;;;5102314;27;20031;-72
2022/10/18 08:01:51;;;;;;;5.97;1.70;;;;;;;;;;5102712;27;20036;-73
2022/10/18 08:04:17;;;;;;;8.80;1.35;;;;;;;;;;5082329;28;20130;-74
2022/10/18 08:06:43;;;;;;;1.55;1.42;;;;;;;;;;5100933;28;20030;-74
2022/10/18 08:09:10;;;;;;;3.25;2.50;;;;;;;;;;5102123;28;20107;-75
2022/10/18 08:11:36;;;;;;;6.50;2.50;;;;;;;;;;5096669;27;20394;-72
2022/10/18 08:14:02;;;;;;;2.15;1.33;;;;;;;;;;5101713;27;20019;-73
2022/10/18 08:16:30;;;;;;;4.63;1.42;;;;;;;;;;5104460;27;20028;-73
2022/10/18 08:19:03;;;;;;;2.47;0.80;;;;;;;;;;5100459;27;20068;-75
2022/10/18 08:21:29;;;;;;;2.40;1.50;;;;;;;;;;5102289;27;20050;-74
2022/10/18 08:23:55;;;;;;;1.08;0.52;;;;;;;;;;5106690;27;20061;-75
2022/10/18 08:26:22;;;;;;;4.50;1.52;;;;;;;;;;5106321;27;20028;-75
2022/10/18 08:28:49;;;;;;;2.78;1.20;;;;;;;;;;5081672;28;20118;-76
2022/10/18 08:31:19;;;;;;;0.63;0.30;;;;;;;;;;5101451;28;20084;-75
2022/10/18 08:33:46;;;;;;;1.05;0.60;;;;;;;;;;5103215;27;20047;-74
2022/10/18 08:36:14;;;;;;;2.45;0.57;;;;;;;;;;5100444;28;20498;-73
2022/10/18 08:38:41;;;;;;;1.75;1.00;;;;;;;;;;5083462;28;20041;-75
2022/10/18 08:41:39;;;;;;;4.68;1.65;;;;;;;;;;5101878;27;20067;-76
2022/10/18 08:44:15;;;;;;;7.03;1.77;;;;;;;;;;5025697;28;20066;-76
2022/10/18 08:46:47;;;;;;;7.35;1.30;;;;;;;;;;5083285;28;20028;-75
2022/10/18 08:49:27;;;;;;;0.73;0.63;;;;;;;;;;5068451;28;20068;-75
2022/10/18 08:51:54;;;;;;;3.30;1.73;;;;;;;;;;5088311;28;20530;-73
2022/10/18 08:54:31;;;;;;;4.15;3.38;;;;;;;;;;5086218;28;20028;-73
2022/10/18 08:57:01;;;;;;;1.73;0.90;;;;;;;;;;5067224;28;20033;-74
2022/10/18 08:59:32;;;;;;;1.33;1.15;;;;;;;;;;5089747;28;20036;-72
2022/10/18 09:02:01;;;;;;;1.10;0.90;;;;;;;;;;5061995;28;20494;-71
2022/10/18 09:04:40;;;;;;;1.88;1.13;;;;;;;;;;5086811;28;20016;-72
2022/10/18 09:07:29;;;;;;;2.28;1.25;;;;;;;;;;5084558;28;20398;-72
2022/10/18 09:10:02;;;;;;;0.47;0.30;;;;;;;;;;5022970;28;20177;-73
2022/10/18 09:12:37;;;;;;;0.20;0.20;;;;;;;;;;5084557;28;20027;-74
2022/10/18 09:15:11;;;;;;;1.25;1.15;;;;;;;;;;5088293;28;20024;-72
2022/10/18 09:17:43;;;;;;;10.88;0.98;;;;;;;;;;5086535;28;20499;-72
2022/10/18 09:20:26;;;;;;;0.88;0.38;;;;;;;;;;5068862;28;20073;-73
2022/10/18 09:23:09;;;;;;;1.63;1.25;;;;;;;;;;5067770;28;20039;-72
2022/10/18 09:25:36;;;;;;;0.98;0.80;;;;;;;;;;5072200;28;20078;-73
2022/10/18 09:28:21;;;;;;;1.63;0.98;;;;;;;;;;5068328;28;20111;-72
2022/10/18 09:30:54;;;;;;;1.75;0.38;;;;;;;;;;5088801;28;20139;-73
2022/10/18 09:33:20;;;;;;;0.28;0.28;;;;;;;;;;5069262;28;20034;-73
2022/10/18 09:35:56;;;;;;;0.38;0.32;;;;;;;;;;5083564;28;20026;-73
2022/10/18 09:38:25;;;;;;;0.75;0.75;;;;;;;;;;5085144;28;20513;-75
2022/10/18 09:41:04;;;;;;;1.35;0.22;;;;;;;;;;5075034;28;20028;-74
2022/10/18 09:43:53;;;;;;;0.65;0.43;;;;;;;;;;5108402;27;20082;-74
2022/10/18 09:46:21;;;;;;;2.95;1.77;;;;;;;;;;5085663;27;20112;-75
2022/10/18 09:48:59;;;;;;;1.13;0.57;;;;;;;;;;5120814;27;20484;-74
2022/10/18 09:51:44;;;;;;;3.10;1.35;;;;;;;;;;5105119;27;20027;-75
2022/10/18 09:54:11;;;;;;;0.43;0.30;;;;;;;;;;5106474;27;20019;-75
2022/10/18 09:56:52;;;;;;;0.90;0.30;;;;;;;;;;5108484;27;20469;-75
2022/10/18 09:59:27;;;;;;;0.22;0.20;;;;;;;;;;5108757;27;20034;-75
2022/10/18 10:01:53;;;;;;;0.85;0.38;;;;;;;;;;5127522;27;20119;-74
2022/10/18 10:04:20;;;;;;;0.38;0.30;;;;;;;;;;5106669;27;20030;-74
2022/10/18 10:06:50;;;;;;;0.82;0.68;;;;;;;;;;5115530;27;20038;-73
2022/10/18 10:09:17;;;;;;;0.00;0.00;;;;;;;;;;5122493;27;20018;-75
2022/10/18 10:11:45;;;;;;;1.05;0.95;;;;;;;;;;5128494;27;20473;-75
2022/10/18 10:14:11;;;;;;;0.35;0.30;;;;;;;;;;5111371;27;20477;-76
2022/10/18 10:16:47;;;;;;;1.25;0.57;;;;;;;;;;5116233;27;20031;-77
2022/10/18 10:19:25;;;;;;;0.00;0.00;;;;;;;;;;5105540;27;20023;-77
2022/10/18 10:21:55;;;;;;;0.00;0.00;;;;;;;;;;5125363;27;20023;-78
2022/10/18 10:24:26;;;;;;;0.45;0.45;;;;;;;;;;5118275;27;20489;-77
2022/10/18 10:26:58;;;;;;;0.00;0.00;;;;;;;;;;5118761;27;20520;-75
2022/10/18 10:29:47;;;;;;;0.20;0.20;;;;;;;;;;5122758;27;20024;-76
2022/10/18 10:32:24;;;;;;;0.03;0.03;;;;;;;;;;5101682;28;20031;-77
2022/10/18 10:34:50;;;;;;;2.03;0.95;;;;;;;;;;5117532;27;20152;-75
2022/10/18 10:37:23;;;;;;;0.00;0.00;;;;;;;;;;5104865;28;20040;-77
2022/10/18 10:40:17;;;;;;;0.00;0.00;;;8.70;99.90;;;;;;5125213;27;20031;-76
2022/10/18 10:43:02;;;;;;;0.00;0.00;;;;;;;;;;5121588;27;20043;-74
2022/10/18 10:46:06;;;;;;;0.00;0.00;;;8.90;99.90;;;;;;5121469;27;20015;-75
2022/10/18 10:48:42;;;;;;;0.70;0.38;;;8.90;99.90;;;;;;5103060;27;20142;-75
2022/10/18 10:51:11;;;;;;;0.28;0.28;;;8.90;99.90;;;;;;5110987;27;20102;-78
2022/10/18 10:53:39;;;;;;;0.10;0.10;;;8.90;99.90;;;;;;5107575;27;20038;-77
2022/10/18 10:56:12;;;;;;;0.10;0.10;;;9.00;99.90;;;;;;5131688;27;20028;-75
2022/10/18 10:58:40;;;;;;;1.17;1.17;;;9.10;99.90;;;;;;5125808;27;20026;-79
2022/10/18 11:01:40;;;;;;;1.85;1.60;;;9.10;99.90;;;;;;5130288;27;20044;-81
2022/10/18 11:04:25;;;;;;;0.00;0.00;;;8.80;99.90;;;;;;5097100;27;20023;-80
2022/10/18 11:07:25;;;;;;;0.22;0.22;;;9.20;99.90;;;;;;5140746;27;20175;-80
2022/10/18 11:10:10;;;;;;;1.17;1.08;;;9.30;99.90;;;;;;5152302;27;20044;-80
2022/10/18 11:12:43;;;;;;;1.85;0.95;;;9.20;99.90;;;;;;5122542;27;20042;-81
2022/10/18 11:15:13;;;;;;;0.35;0.35;;;;;;;;;;5117605;27;20084;-80
2022/10/18 11:17:42;;;;;;;0.60;0.55;;;;;;;;;;5115781;27;20027;-73
2022/10/18 11:20:16;;;;;;;2.70;1.85;;;;;;;;;;5115893;27;20034;-80
2022/10/18 11:23:15;;;;;;;0.57;0.43;;;9.30;99.90;;;;;;5131229;27;20034;-80
2022/10/18 11:25:56;;;;;;;2.80;2.65;;;9.20;99.90;;;;;;5108516;27;20034;-80
2022/10/18 11:28:44;;;;;;;0.00;0.00;;;9.20;99.90;;;;;;5125027;27;20410;-80
2022/10/18 11:31:25;;;;;;;0.40;0.40;;;9.20;99.90;;;;;;5123905;27;20031;-80
2022/10/18 11:34:00;;;;;;;0.45;0.45;;;9.30;99.90;;;;;;5126237;27;20374;-79
2022/10/18 11:36:48;;;;;;;0.00;0.00;;;9.20;99.90;;;;;;5105525;27;20027;-79
2022/10/18 11:39:48;;;;;;;1.10;0.40;;;9.20;99.90;;;;;;5118492;27;20385;-78
2022/10/18 11:42:42;;;;;;;0.10;0.10;;;9.30;99.90;;;;;;5108210;27;20401;-79
2022/10/18 11:45:46;;;;;;;0.00;0.00;;;9.20;99.90;;;;;;5114332;27;20027;-79
2022/10/18 11:48:49;;;;;;;0.00;0.00;;;9.20;99.90;;;;;;5100088;27;20490;-78
2022/10/18 11:51:30;;;;;;;0.00;0.00;;;9.30;99.90;;;;;;5102363;27;20114;-79
2022/10/18 11:54:22;;;;;;;0.00;0.00;;;9.20;99.90;;;;;;5100428;27;20035;-80
2022/10/18 11:57:05;;;;;;;4.32;2.80;;;9.30;99.90;;;;;;5096320;27;20027;-77
2022/10/18 12:00:02;;;;;;;2.90;1.65;;;9.40;99.90;;;;;;5120160;27;20024;-78
2022/10/18 12:02:31;;;;;;;1.88;1.38;;;9.30;99.90;;;;;;5133329;27;20031;-79
2022/10/18 12:05:01;;;;;;;1.55;1.45;;;9.30;99.90;;;;;;5112977;27;20087;-78
2022/10/18 12:07:34;;;;;;;0.10;0.10;;;9.40;99.90;;;;;;5112375;27;20015;-80
2022/10/18 12:10:03;;;;;;;0.50;0.38;;;9.30;99.90;;;;;;5130428;27;20038;-80
2022/10/18 12:12:32;;;;;;;0.00;0.00;;;9.40;99.90;;;;;;5111883;27;20512;-82
2022/10/18 12:15:01;;;;;;;2.53;2.03;;;9.30;99.90;;;;;;5111355;27;20032;-81
2022/10/18 12:17:30;;;;;;;0.57;0.57;;;9.20;99.90;;;;;;5136002;27;20488;-81
2022/10/18 12:20:23;;;;;;;3.13;2.28;;;9.30;99.90;;;;;;5140427;27;20034;-82
2022/10/18 12:23:12;;;;;;;22.80;21.60;;;9.30;99.90;;;;;;5116143;27;20096;-81
2022/10/18 12:25:42;;;;;;;0.00;0.00;;;9.30;99.90;;;;;;5123352;27;20056;-81
2022/10/18 12:28:39;;;;;;;0.00;0.00;;;9.40;99.90;;;;;;5135370;27;20028;-80
2022/10/18 12:31:14;;;;;;;0.40;0.40;;;9.20;99.90;;;;;;5134848;27;20023;-82
2022/10/18 12:33:45;;;;;;;0.30;0.30;;;9.30;99.90;;;;;;5126686;27;20531;-82
2022/10/18 12:36:14;;;;;;;0.45;0.45;;;9.30;99.90;;;;;;5117846;27;20039;-81
2022/10/18 12:38:42;;;;;;;0.00;0.00;;;9.30;99.90;;;;;;5130423;27;20452;-82
2022/10/18 12:41:23;;;;;;;0.00;0.00;;;9.40;99.90;;;;;;5106955;27;20027;-79
2022/10/18 12:44:03;;;;;;;6.93;6.50;;;9.40;99.90;;;;;;5122528;27;20027;-80
2022/10/18 12:46:47;;;;;;;0.00;0.00;;;9.30;99.90;;;;;;5121995;27;20023;-80
2022/10/18 12:49:20;;;;;;;0.47;0.40;;;9.40;99.90;;;;;;5123686;27;20423;-81
2022/10/18 12:51:58;;;;;;;2.83;2.72;;;9.40;99.90;;;;;;5120931;27;20119;-80
2022/10/18 12:54:29;;;;;;;0.13;0.13;;;9.40;99.90;;;;;;5117091;27;20023;-81
2022/10/18 12:56:57;;;;;;;1.63;1.10;;;9.40;99.90;;;;;;5110082;27;20027;-80
2022/10/18 12:59:27;;;;;;;0.28;0.28;;;9.40;99.90;;;;;;5107582;27;20050;-81
2022/10/18 13:01:53;;;;;;;0.30;0.30;;;9.30;99.90;;;;;;5097943;27;20456;-82
2022/10/18 13:04:28;;;;;;;0.43;0.43;;;9.20;99.90;;;;;;5123793;27;20019;-82
2022/10/18 13:06:58;;;;;;;0.10;0.10;;;9.20;99.90;;;;;;5109419;27;20355;-82
2022/10/18 13:09:29;;;;;;;0.00;0.00;;;9.20;99.90;;;;;;5104475;27;20019;-82
2022/10/18 13:12:10;;;;;;;0.85;0.85;;;9.10;99.90;;;;;;5119802;27;20023;-82
2022/10/18 13:14:51;;;;;;;0.30;0.30;;;9.10;99.90;;;;;;5134033;27;20027;-82
2022/10/18 13:17:53;;;;;;;0.00;0.00;;;9.00;99.90;;;;;;5106091;27;20032;-82
2022/10/18 13:20:28;;;;;;;1.30;1.08;;;9.00;99.90;;;;;;5131354;27;20534;-82
2022/10/18 13:23:13;;;;;;;0.30;0.30;;;9.10;99.90;;;;;;5118462;27;20123;-83
2022/10/18 13:26:16;;;;;;;0.20;0.20;;;9.10;99.90;;;;;;5128057;27;20032;-81
2022/10/18 13:29:24;;;;;;;0.00;0.00;;;9.10;99.90;;;;;;5114318;27;20038;-81
2022/10/18 13:32:26;;;;;;;1.48;0.98;;;9.10;99.90;;;;;;5034783;28;20028;-81
2022/10/18 13:34:52;;;;;;;0.00;0.00;;;9.20;99.90;;;;;;5044668;28;20032;-81
2022/10/18 13:37:24;;;;;;;0.35;0.35;;;9.20;99.90;;;;;;5102058;27;20035;-80
2022/10/18 13:40:24;;;;;;;3.75;3.55;;;9.10;99.90;;;;;;5109495;27;20035;-81
2022/10/18 13:42:50;;;;;;;0.00;0.00;;;9.20;99.90;;;;;;5101610;27;20519;-81
2022/10/18 13:45:31;;;;;;;0.00;0.00;;;9.10;99.90;;;;;;5118041;27;20102;-81
2022/10/18 13:48:28;;;;;;;0.38;0.38;;;9.10;99.90;;;;;;5107420;27;20072;-81
2022/10/18 13:51:21;;;;;;;0.98;0.98;;;9.10;99.90;;;;;;5120011;27;20034;-81
2022/10/18 13:53:53;;;;;;;0.00;0.00;;;9.20;99.90;;;;;;5098942;27;20042;-81
2022/10/18 13:56:50;;;;;;;2.22;2.13;;;9.20;99.90;;;;;;5107525;27;20023;-81
2022/10/18 13:59:37;;;;;;;0.00;0.00;;;9.20;99.90;;;;;;5085664;27;20027;-81
2022/10/18 14:02:15;;;;;;;0.32;0.13;;;9.10;99.90;;;;;;5125641;27;20106;-81
2022/10/18 14:05:07;;;;;;;1.35;1.35;;;9.20;99.90;;;;;;5133762;27;20043;-80
2022/10/18 14:07:34;;;;;;;0.20;0.20;;;9.20;99.90;;;;;;5126493;27;20031;-80
2022/10/18 14:10:02;;;;;;;0.30;0.30;;;9.20;99.90;;;;;;5133538;27;20524;-80
2022/10/18 14:12:46;;;;;;;3.33;3.13;;;9.20;99.90;;;;;;5134924;27;20438;-80
2022/10/18 14:15:17;;;;;;;2.90;1.63;;;9.20;99.90;;;;;;5128802;27;20027;-80
2022/10/18 14:17:58;;;;;;;1.58;1.48;;;9.10;99.90;;;;;;5126746;27;20023;-80
2022/10/18 14:20:27;;;;;;;1.38;1.27;;;9.00;99.90;;;;;;5118157;27;20054;-80
2022/10/18 14:23:02;;;;;;;0.00;0.00;;;8.90;99.90;;;;;;5135419;27;20038;-81
2022/10/18 14:25:31;;;;;;;0.08;0.08;;;9.00;99.90;;;;;;5113873;28;20024;-81
2022/10/18 14:28:09;;;;;;;0.20;0.20;;;9.00;99.90;;;;;;5115755;27;20019;-81
2022/10/18 14:30:35;;;;;;;0.00;0.00;;;9.00;99.90;;;;;;5109129;28;20388;-82
2022/10/18 14:33:02;;;;;;;0.00;0.00;;;8.90;99.90;;;;;;5103590;28;20526;-80
2022/10/18 14:35:31;;;;;;;0.10;0.10;;;8.80;99.90;;;;;;5120976;28;20035;-80
2022/10/18 14:38:00;;;;;;;0.00;0.00;;;8.80;99.90;;;;;;5120777;28;20020;-80
2022/10/18 14:40:39;;;;;;;0.00;0.00;;;8.70;99.90;;;;;;5119288;28;20023;-81